^^
Meteo Knjazevac Station Historical Data
Daily Summary for May 26, 2021 Units:  Both    English   Metric
Daily Weekly Monthly Yearly Custom
  High: Low: Average:
Temperature: 38.7 °F /  3.7 °C 32.4 °F /  0.2 °C 34.2 °F /  1.2 °C
Dew Point: 38.4 °F /  3.6 °C 32.1 °F /  0.1 °C 33.9 °F /  1.1 °C
Humidity: 99% 98% 99%
Wind Speed: 10mph /  16.1km/h - 3mph /  4.8km/h
Wind Gust: 15mph /  24.1km/h - -
Wind- - SE
Pressure: 29.86 in /  1011.1 hPa 29.68 in /  1005 hPa -
Precipitation: 0.14 in /  3.56 mm    
Historical Graphs
 
 
Tabular Data for May 26, 2021
Time Temperature Dew Point Pressure Wind Wind Speed Wind Gust Humidity Rainfall Rate (Hourly) solar Conditions
00:00 38.1 °F /  3.4 °C 37.9 °F /  3.3 °C 29.69in /  1005.3hPa SSE 2mph /  3.2km/h 11mph /  17.7km/h 99% 0.01in /  0.25mm 0 W/m2
00:10 38.1 °F /  3.4 °C 37.9 °F /  3.3 °C 29.69in /  1005.3hPa SSE 1mph /  1.6km/h 7mph /  11.3km/h 99% 0.01in /  0.25mm 0 W/m2
00:20 38.3 °F /  3.5 °C 38 °F /  3.3 °C 29.69in /  1005.3hPa SSW 2mph /  3.2km/h 4mph /  6.4km/h 99% 0.01in /  0.25mm 0 W/m2
00:30 38.5 °F /  3.6 °C 38.2 °F /  3.4 °C 29.69in /  1005.3hPa SE 6mph /  9.7km/h 12mph /  19.3km/h 99% 0.00in /  0mm 0 W/m2
00:40 38.7 °F /  3.7 °C 38.2 °F /  3.4 °C 29.69in /  1005.3hPa ESE 2mph /  3.2km/h 12mph /  19.3km/h 98% 0.00in /  0mm 0 W/m2
00:50 38.7 °F /  3.7 °C 38.1 °F /  3.4 °C 29.68in /  1005hPa ESE 3mph /  4.8km/h 8mph /  12.9km/h 98% 0.00in /  0mm 0 W/m2
01:00 38.7 °F /  3.7 °C 38.4 °F /  3.6 °C 29.68in /  1005hPa NNE 3mph /  4.8km/h 7mph /  11.3km/h 99% 0.00in /  0mm 0 W/m2
01:10 38.3 °F /  3.5 °C 38 °F /  3.3 °C 29.69in /  1005.3hPa NNE 6mph /  9.7km/h 14mph /  22.5km/h 99% 0.00in /  0mm 0 W/m2
01:20 37.7 °F /  3.2 °C 37.5 °F /  3.1 °C 29.69in /  1005.3hPa North 7mph /  11.3km/h 12mph /  19.3km/h 99% 0.00in /  0mm 0 W/m2
01:30 36.9 °F /  2.7 °C 36.6 °F /  2.6 °C 29.69in /  1005.3hPa NNE 9mph /  14.5km/h 14mph /  22.5km/h 99% 0.01in /  0.25mm 0 W/m2
01:40 36.5 °F /  2.5 °C 36.2 °F /  2.3 °C 29.69in /  1005.3hPa NNE 7mph /  11.3km/h 14mph /  22.5km/h 99% 0.01in /  0.25mm 0 W/m2
01:50 36.3 °F /  2.4 °C 36.1 °F /  2.3 °C 29.69in /  1005.3hPa NNE 6mph /  9.7km/h 11mph /  17.7km/h 99% 0.01in /  0.25mm 0 W/m2
02:00 36.1 °F /  2.3 °C 35.9 °F /  2.2 °C 29.69in /  1005.3hPa NNE 5mph /  8km/h 12mph /  19.3km/h 99% 0.01in /  0.25mm 0 W/m2
02:10 36 °F /  2.2 °C 35.7 °F /  2.1 °C 29.69in /  1005.3hPa NNE 7mph /  11.3km/h 12mph /  19.3km/h 99% 0.01in /  0.25mm 0 W/m2
02:20 35.7 °F /  2.1 °C 35.5 °F /  1.9 °C 29.69in /  1005.3hPa NNE 10mph /  16.1km/h 15mph /  24.1km/h 99% 0.01in /  0.25mm 0 W/m2
02:30 35.4 °F /  1.9 °C 35.1 °F /  1.7 °C 29.69in /  1005.3hPa NNE 10mph /  16.1km/h 15mph /  24.1km/h 99% 0.01in /  0.25mm 0 W/m2
02:40 35.2 °F /  1.8 °C 34.9 °F /  1.6 °C 29.69in /  1005.3hPa NNE 6mph /  9.7km/h 15mph /  24.1km/h 99% 0.01in /  0.25mm 0 W/m2
02:50 35.1 °F /  1.7 °C 34.8 °F /  1.6 °C 29.69in /  1005.3hPa NNE 7mph /  11.3km/h 12mph /  19.3km/h 99% 0.01in /  0.25mm 0 W/m2
03:00 34.9 °F /  1.6 °C 34.6 °F /  1.4 °C 29.70in /  1005.6hPa NNE 6mph /  9.7km/h 13mph /  20.9km/h 99% 0.01in /  0.25mm 0 W/m2
03:10 34.7 °F /  1.5 °C 34.4 °F /  1.3 °C 29.69in /  1005.3hPa NNE 6mph /  9.7km/h 12mph /  19.3km/h 99% 0.00in /  0mm 0 W/m2
03:20 34.5 °F /  1.4 °C 34.3 °F /  1.3 °C 29.70in /  1005.6hPa NNE 7mph /  11.3km/h 12mph /  19.3km/h 99% 0.00in /  0mm 0 W/m2
03:30 34.3 °F /  1.3 °C 34.1 °F /  1.2 °C 29.70in /  1005.6hPa NNE 6mph /  9.7km/h 11mph /  17.7km/h 99% 0.00in /  0mm 0 W/m2
03:40 34.2 °F /  1.2 °C 33.9 °F /  1.1 °C 29.70in /  1005.6hPa NNE 3mph /  4.8km/h 9mph /  14.5km/h 99% 0.00in /  0mm 0 W/m2
03:50 34.2 °F /  1.2 °C 33.9 °F /  1.1 °C 29.70in /  1005.6hPa NNE 7mph /  11.3km/h 14mph /  22.5km/h 99% 0.01in /  0.25mm 0 W/m2
04:00 34 °F /  1.1 °C 33.7 °F /  0.9 °C 29.71in /  1006hPa NNE 7mph /  11.3km/h 14mph /  22.5km/h 99% 0.01in /  0.25mm 0 W/m2
04:10 34 °F /  1.1 °C 33.7 °F /  0.9 °C 29.72in /  1006.3hPa NNE 2mph /  3.2km/h 13mph /  20.9km/h 99% 0.01in /  0.25mm 0 W/m2
04:20 33.8 °F /  1 °C 33.5 °F /  0.8 °C 29.72in /  1006.3hPa NNE 5mph /  8km/h 12mph /  19.3km/h 99% 0.00in /  0mm 0 W/m2
04:30 33.4 °F /  0.8 °C 33.2 °F /  0.7 °C 29.73in /  1006.7hPa North 7mph /  11.3km/h 10mph /  16.1km/h 99% 0.00in /  0mm 0 W/m2
04:40 33.1 °F /  0.6 °C 32.8 °F /  0.4 °C 29.73in /  1006.7hPa NNE 5mph /  8km/h 10mph /  16.1km/h 99% 0.00in /  0mm 0 W/m2
04:50 32.9 °F /  0.5 °C 32.7 °F /  0.4 °C 29.73in /  1006.7hPa NE 3mph /  4.8km/h 12mph /  19.3km/h 99% 0.00in /  0mm 0 W/m2
05:00 32.7 °F /  0.4 °C 32.5 °F /  0.3 °C 29.74in /  1007hPa South 2mph /  3.2km/h 6mph /  9.7km/h 99% 0.00in /  0mm 0 W/m2
05:10 32.7 °F /  0.4 °C 32.5 °F /  0.3 °C 29.74in /  1007hPa South 1mph /  1.6km/h 5mph /  8km/h 99% 0.00in /  0mm 0 W/m2
05:20 32.5 °F /  0.3 °C 32.3 °F /  0.2 °C 29.74in /  1007hPa SE 1mph /  1.6km/h 5mph /  8km/h 99% 0.00in /  0mm 0 W/m2
05:30 32.5 °F /  0.3 °C 32.3 °F /  0.2 °C 29.75in /  1007.3hPa SSE 2mph /  3.2km/h 5mph /  8km/h 99% 0.00in /  0mm 0 W/m2
05:40 32.5 °F /  0.3 °C 32.3 °F /  0.2 °C 29.75in /  1007.3hPa SSE 1mph /  1.6km/h 3mph /  4.8km/h 99% 0.00in /  0mm 0 W/m2
05:50 32.5 °F /  0.3 °C 32.3 °F /  0.2 °C 29.76in /  1007.7hPa South 1mph /  1.6km/h 6mph /  9.7km/h 99% 0.00in /  0mm 0 W/m2
06:00 32.5 °F /  0.3 °C 32.3 °F /  0.2 °C 29.76in /  1007.7hPa SSE 1mph /  1.6km/h 7mph /  11.3km/h 99% 0.00in /  0mm 0 W/m2
06:10 32.4 °F /  0.2 °C 32.1 °F /  0.1 °C 29.77in /  1008hPa SSE 1mph /  1.6km/h 5mph /  8km/h 99% 0.00in /  0mm 0 W/m2
06:20 32.5 °F /  0.3 °C 32.3 °F /  0.2 °C 29.77in /  1008hPa SSE 1mph /  1.6km/h 5mph /  8km/h 99% 0.00in /  0mm 0 W/m2
06:30 32.5 °F /  0.3 °C 32.3 °F /  0.2 °C 29.77in /  1008hPa SSE 2mph /  3.2km/h 5mph /  8km/h 99% 0.00in /  0mm 0 W/m2
06:40 32.4 °F /  0.2 °C 32.1 °F /  0.1 °C 29.77in /  1008hPa SSE 1mph /  1.6km/h 5mph /  8km/h 99% 0.00in /  0mm 0 W/m2
06:50 32.4 °F /  0.2 °C 32.1 °F /  0.1 °C 29.78in /  1008.4hPa SW 2mph /  3.2km/h 4mph /  6.4km/h 99% 0.00in /  0mm 0 W/m2
07:00 32.4 °F /  0.2 °C 32.1 °F /  0.1 °C 29.79in /  1008.7hPa SW 2mph /  3.2km/h 4mph /  6.4km/h 99% 0.00in /  0mm 0 W/m2
07:10 32.4 °F /  0.2 °C 32.1 °F /  0.1 °C 29.79in /  1008.7hPa West 1mph /  1.6km/h 5mph /  8km/h 99% 0.00in /  0mm 0 W/m2
07:20 32.4 °F /  0.2 °C 32.1 °F /  0.1 °C 29.79in /  1008.7hPa WSW 1mph /  1.6km/h 5mph /  8km/h 99% 0.00in /  0mm 1 W/m2
07:30 32.4 °F /  0.2 °C 32.1 °F /  0.1 °C 29.80in /  1009hPa SSE 1mph /  1.6km/h 4mph /  6.4km/h 99% 0.00in /  0mm 1 W/m2
07:40 32.4 °F /  0.2 °C 32.1 °F /  0.1 °C 29.81in /  1009.4hPa SSW 1mph /  1.6km/h 3mph /  4.8km/h 99% 0.00in /  0mm 2 W/m2
07:50 32.4 °F /  0.2 °C 32.1 °F /  0.1 °C 29.82in /  1009.7hPa SW 1mph /  1.6km/h 3mph /  4.8km/h 99% 0.00in /  0mm 3 W/m2
08:00 32.4 °F /  0.2 °C 32.1 °F /  0.1 °C 29.81in /  1009.4hPa South 1mph /  1.6km/h 3mph /  4.8km/h 99% 0.00in /  0mm 4 W/m2
08:10 32.4 °F /  0.2 °C 32.1 °F /  0.1 °C 29.82in /  1009.7hPa NE 1mph /  1.6km/h 5mph /  8km/h 99% 0.00in /  0mm 6 W/m2
08:20 32.5 °F /  0.3 °C 32.3 °F /  0.2 °C 29.82in /  1009.7hPa NNW 2mph /  3.2km/h 4mph /  6.4km/h 99% 0.00in /  0mm 7 W/m2
08:30 32.5 °F /  0.3 °C 32.3 °F /  0.2 °C 29.82in /  1009.7hPa NNW 2mph /  3.2km/h 4mph /  6.4km/h 99% 0.00in /  0mm 10 W/m2
08:40 32.5 °F /  0.3 °C 32.3 °F /  0.2 °C 29.83in /  1010hPa ENE 1mph /  1.6km/h 3mph /  4.8km/h 99% 0.00in /  0mm 14 W/m2
08:50 32.5 °F /  0.3 °C 32.3 °F /  0.2 °C 29.83in /  1010hPa SSW 1mph /  1.6km/h 3mph /  4.8km/h 99% 0.00in /  0mm 15 W/m2
09:00 32.7 °F /  0.4 °C 32.5 °F /  0.3 °C 29.83in /  1010hPa Calm   2mph /  3.2km/h 99% 0.00in /  0mm 20 W/m2
09:10 32.9 °F /  0.5 °C 32.7 °F /  0.4 °C 29.84in /  1010.4hPa WNW 1mph /  1.6km/h 3mph /  4.8km/h 99% 0.00in /  0mm 22 W/m2
09:20 33 °F /  0.6 °C 32.7 °F /  0.4 °C 29.84in /  1010.4hPa Calm   2mph /  3.2km/h 99% 0.00in /  0mm 27 W/m2
09:30 33.1 °F /  0.6 °C 32.8 °F /  0.4 °C 29.84in /  1010.4hPa NNW 2mph /  3.2km/h 4mph /  6.4km/h 99% 0.00in /  0mm 28 W/m2
09:40 33.3 °F /  0.7 °C 33 °F /  0.6 °C 29.85in /  1010.7hPa NW 1mph /  1.6km/h 4mph /  6.4km/h 99% 0.00in /  0mm 33 W/m2
09:50 33.4 °F /  0.8 °C 33.2 °F /  0.7 °C 29.85in /  1010.7hPa West 1mph /  1.6km/h 2mph /  3.2km/h 99% 0.00in /  0mm 25 W/m2
10:00 33.4 °F /  0.8 °C 33.2 °F /  0.7 °C 29.85in /  1010.7hPa West 1mph /  1.6km/h 2mph /  3.2km/h 99% 0.00in /  0mm 28 W/m2
10:10 33.4 °F /  0.8 °C 33.2 °F /  0.7 °C 29.86in /  1011.1hPa WNW 1mph /  1.6km/h 3mph /  4.8km/h 99% 0.00in /  0mm 29 W/m2
10:20 33.5 °F /  0.8 °C 33.3 °F /  0.7 °C 29.86in /  1011.1hPa West 1mph /  1.6km/h 3mph /  4.8km/h 99% 0.00in /  0mm 29 W/m2
10:30 33.6 °F /  0.9 °C 33.4 °F /  0.8 °C 29.85in /  1010.7hPa WSW 1mph /  1.6km/h 3mph /  4.8km/h 99% 0.00in /  0mm 34 W/m2
10:40 33.6 °F /  0.9 °C 33.4 °F /  0.8 °C 29.85in /  1010.7hPa WSW 1mph /  1.6km/h 2mph /  3.2km/h 99% 0.00in /  0mm 35 W/m2
10:50 33.8 °F /  1 °C 33.5 °F /  0.8 °C 29.85in /  1010.7hPa WSW 1mph /  1.6km/h 2mph /  3.2km/h 99% 0.00in /  0mm 32 W/m2
11:00 33.8 °F /  1 °C 33.5 °F /  0.8 °C 29.85in /  1010.7hPa WNW 1mph /  1.6km/h 2mph /  3.2km/h 99% 0.00in /  0mm 39 W/m2
11:10 34 °F /  1.1 °C 33.7 °F /  0.9 °C 29.85in /  1010.7hPa NNW 1mph /  1.6km/h 2mph /  3.2km/h 99% 0.00in /  0mm 46 W/m2
Knjazevac, Serbia
Compliments of Weather Underground - 2 mb